Grizzly Air Cargo 5379


PABE
Bethel Airport
Bethel, Alaska, US
PAKN
King Salmon Airport
King Salmon, Alaska, US

Activity Log

Date Flight Route Aircraft Duration
No Flights Yet

Route Details

Aircraft Information
Primary: Saab 340AF
Backup: Not Available
Route Data
Distance: 208nm
Sched. Duration: 1h 00m
Avg. Duration: 0h 00m (-100m)
Times Flown: 0
Recm'd Route: BET J123 AKN
Planned Altitude: 21,000ft
Origin Wx: PABE 231353Z 16006KT 10SM OVC055 M23/M26 A3033 RMK AO2 UPB41E48SNE41 SLP273 P0000 T12331261
Dest. Wx: PAKN 231354Z AUTO 03007KT 10SM CLR M26/M29 A3031 RMK AO2 SLP267 T12611294 TSNO
Notes:

Financial History
Total Freight: 0lbs
Average Load: 0lbs/flt
Fuel Used: 0lbs
Avg. Fuel Used: 0lbs/flt
Fuel Expense: $0
Avg. Fuel Expense: $0
Avg. Fuel Cost: $0/lbs
Total Gross Income: $0
Pilot Pay: $0
Total Expenses: $0
Total Revenue: $0
Average Revenue: $0